sensor_id;sensor_type;location;lat;lon;timestamp;P1;durP1;ratioP1;P2;durP2;ratioP2
42670;SDS011;28283;55.426;37.756;2024-01-11T00:43:15;4.57;;;3.40;;
42670;SDS011;28283;55.426;37.756;2024-01-11T00:48:16;6.53;;;4.45;;
42670;SDS011;28283;55.426;37.756;2024-01-11T00:53:17;6.00;;;3.00;;
42670;SDS011;28283;55.426;37.756;2024-01-11T00:58:18;6.43;;;3.88;;
42670;SDS011;28283;55.426;37.756;2024-01-11T01:03:19;6.05;;;3.67;;
42670;SDS011;28283;55.426;37.756;2024-01-11T01:08:20;4.47;;;3.17;;
42670;SDS011;28283;55.426;37.756;2024-01-11T01:13:21;4.90;;;3.72;;
42670;SDS011;28283;55.426;37.756;2024-01-11T01:18:21;5.95;;;3.50;;
42670;SDS011;28283;55.426;37.756;2024-01-11T01:23:22;3.85;;;2.28;;
42670;SDS011;28283;55.426;37.756;2024-01-11T01:28:22;6.10;;;2.92;;
42670;SDS011;28283;55.426;37.756;2024-01-11T01:33:23;5.63;;;4.13;;
42670;SDS011;28283;55.426;37.756;2024-01-11T01:38:24;2.53;;;2.20;;
42670;SDS011;28283;55.426;37.756;2024-01-11T01:43:25;5.65;;;3.63;;
42670;SDS011;28283;55.426;37.756;2024-01-11T01:48:26;2.10;;;1.80;;
42670;SDS011;28283;55.426;37.756;2024-01-11T01:53:27;4.22;;;3.20;;
42670;SDS011;28283;55.426;37.756;2024-01-11T01:58:28;5.32;;;3.10;;
42670;SDS011;28283;55.426;37.756;2024-01-11T02:03:29;5.45;;;3.53;;
42670;SDS011;28283;55.426;37.756;2024-01-11T02:08:30;2.22;;;1.75;;
42670;SDS011;28283;55.426;37.756;2024-01-11T02:13:31;2.97;;;1.60;;
42670;SDS011;28283;55.426;37.756;2024-01-11T02:18:32;3.00;;;2.10;;
42670;SDS011;28283;55.426;37.756;2024-01-11T02:23:33;3.00;;;1.92;;
42670;SDS011;28283;55.426;37.756;2024-01-11T02:28:45;3.75;;;2.60;;
42670;SDS011;28283;55.426;37.756;2024-01-11T02:33:45;2.33;;;1.58;;
42670;SDS011;28283;55.426;37.756;2024-01-11T02:38:47;2.15;;;1.73;;
42670;SDS011;28283;55.426;37.756;2024-01-11T02:43:49;2.00;;;1.65;;
42670;SDS011;28283;55.426;37.756;2024-01-11T02:48:50;1.75;;;0.93;;
42670;SDS011;28283;55.426;37.756;2024-01-11T02:53:51;2.90;;;1.45;;
42670;SDS011;28283;55.426;37.756;2024-01-11T02:58:52;2.10;;;1.20;;
42670;SDS011;28283;55.426;37.756;2024-01-11T03:03:53;1.30;;;1.10;;
42670;SDS011;28283;55.426;37.756;2024-01-11T03:08:55;1.13;;;1.00;;
42670;SDS011;28283;55.426;37.756;2024-01-11T03:13:55;1.05;;;0.95;;
42670;SDS011;28283;55.426;37.756;2024-01-11T03:18:56;2.00;;;0.90;;
42670;SDS011;28283;55.426;37.756;2024-01-11T03:28:58;9.55;;;1.85;;
42670;SDS011;28283;55.426;37.756;2024-01-11T03:33:58;1.08;;;0.85;;
42670;SDS011;28283;55.426;37.756;2024-01-11T03:38:59;0.60;;;0.55;;
42670;SDS011;28283;55.426;37.756;2024-01-11T03:49:00;0.20;;;0.20;;
42670;SDS011;28283;55.426;37.756;2024-01-11T03:59:01;0.40;;;0.40;;
42670;SDS011;28283;55.426;37.756;2024-01-11T04:09:02;0.45;;;0.40;;
42670;SDS011;28283;55.426;37.756;2024-01-11T04:14:04;0.40;;;0.40;;
42670;SDS011;28283;55.426;37.756;2024-01-11T04:24:05;0.35;;;0.28;;
42670;SDS011;28283;55.426;37.756;2024-01-11T04:29:06;0.20;;;0.20;;
42670;SDS011;28283;55.426;37.756;2024-01-11T04:34:08;0.30;;;0.30;;
42670;SDS011;28283;55.426;37.756;2024-01-11T04:39:09;1.63;;;0.40;;
42670;SDS011;28283;55.426;37.756;2024-01-11T04:44:10;0.55;;;0.43;;
42670;SDS011;28283;55.426;37.756;2024-01-11T04:54:11;0.63;;;0.32;;
42670;SDS011;28283;55.426;37.756;2024-01-11T04:59:11;0.15;;;0.15;;
42670;SDS011;28283;55.426;37.756;2024-01-11T05:04:12;0.30;;;0.30;;
42670;SDS011;28283;55.426;37.756;2024-01-11T05:09:13;4.18;;;0.40;;
42670;SDS011;28283;55.426;37.756;2024-01-11T05:14:14;0.85;;;0.30;;
42670;SDS011;28283;55.426;37.756;2024-01-11T05:19:15;1.45;;;0.55;;
42670;SDS011;28283;55.426;37.756;2024-01-11T05:24:16;0.82;;;0.60;;
42670;SDS011;28283;55.426;37.756;2024-01-11T05:29:16;0.63;;;0.40;;
42670;SDS011;28283;55.426;37.756;2024-01-11T05:34:17;1.97;;;0.57;;
42670;SDS011;28283;55.426;37.756;2024-01-11T05:39:17;0.30;;;0.30;;
42670;SDS011;28283;55.426;37.756;2024-01-11T05:44:18;0.25;;;0.25;;
42670;SDS011;28283;55.426;37.756;2024-01-11T05:49:19;0.38;;;0.30;;
42670;SDS011;28283;55.426;37.756;2024-01-11T05:54:19;0.40;;;0.40;;
42670;SDS011;28283;55.426;37.756;2024-01-11T05:59:20;0.20;;;0.20;;
42670;SDS011;28283;55.426;37.756;2024-01-11T06:04:21;1.55;;;0.40;;
42670;SDS011;28283;55.426;37.756;2024-01-11T06:09:21;0.47;;;0.30;;
42670;SDS011;28283;55.426;37.756;2024-01-11T06:14:22;0.77;;;0.40;;
42670;SDS011;28283;55.426;37.756;2024-01-11T06:19:23;0.57;;;0.38;;
42670;SDS011;28283;55.426;37.756;2024-01-11T06:24:23;0.93;;;0.52;;
42670;SDS011;28283;55.426;37.756;2024-01-11T06:29:24;0.95;;;0.30;;
42670;SDS011;28283;55.426;37.756;2024-01-11T06:34:24;0.30;;;0.30;;
42670;SDS011;28283;55.426;37.756;2024-01-11T06:39:25;0.30;;;0.30;;
42670;SDS011;28283;55.426;37.756;2024-01-11T06:44:26;0.40;;;0.35;;
42670;SDS011;28283;55.426;37.756;2024-01-11T06:49:27;0.57;;;0.38;;
42670;SDS011;28283;55.426;37.756;2024-01-11T06:54:27;0.30;;;0.30;;
42670;SDS011;28283;55.426;37.756;2024-01-11T06:59:28;1.15;;;0.40;;
42670;SDS011;28283;55.426;37.756;2024-01-11T07:04:28;0.57;;;0.43;;
42670;SDS011;28283;55.426;37.756;2024-01-11T07:09:29;0.75;;;0.60;;
42670;SDS011;28283;55.426;37.756;2024-01-11T07:14:30;1.45;;;0.50;;
42670;SDS011;28283;55.426;37.756;2024-01-11T07:19:30;0.50;;;0.35;;
42670;SDS011;28283;55.426;37.756;2024-01-11T07:24:31;0.75;;;0.40;;
42670;SDS011;28283;55.426;37.756;2024-01-11T07:29:37;0.60;;;0.50;;
42670;SDS011;28283;55.426;37.756;2024-01-11T07:34:38;2.63;;;0.88;;
42670;SDS011;28283;55.426;37.756;2024-01-11T07:39:39;0.52;;;0.35;;
42670;SDS011;28283;55.426;37.756;2024-01-11T07:44:39;0.40;;;0.40;;
42670;SDS011;28283;55.426;37.756;2024-01-11T07:49:41;1.38;;;0.60;;
42670;SDS011;28283;55.426;37.756;2024-01-11T07:54:41;0.38;;;0.30;;
42670;SDS011;28283;55.426;37.756;2024-01-11T07:59:42;0.70;;;0.40;;
42670;SDS011;28283;55.426;37.756;2024-01-11T08:04:42;0.65;;;0.65;;
42670;SDS011;28283;55.426;37.756;2024-01-11T08:09:43;2.45;;;0.77;;
42670;SDS011;28283;55.426;37.756;2024-01-11T08:14:46;1.40;;;0.63;;
42670;SDS011;28283;55.426;37.756;2024-01-11T08:19:48;0.63;;;0.63;;
42670;SDS011;28283;55.426;37.756;2024-01-11T08:24:49;0.38;;;0.32;;
42670;SDS011;28283;55.426;37.756;2024-01-11T08:34:50;2.72;;;0.30;;
42670;SDS011;28283;55.426;37.756;2024-01-11T08:39:51;0.40;;;0.30;;
42670;SDS011;28283;55.426;37.756;2024-01-11T08:44:51;4.47;;;0.60;;
42670;SDS011;28283;55.426;37.756;2024-01-11T08:49:53;1.05;;;0.60;;
42670;SDS011;28283;55.426;37.756;2024-01-11T08:54:56;1.08;;;0.60;;
42670;SDS011;28283;55.426;37.756;2024-01-11T08:59:56;3.53;;;0.50;;
42670;SDS011;28283;55.426;37.756;2024-01-11T09:04:57;5.07;;;1.20;;
42670;SDS011;28283;55.426;37.756;2024-01-11T09:09:58;0.90;;;0.55;;
42670;SDS011;28283;55.426;37.756;2024-01-11T09:19:59;0.80;;;0.60;;
42670;SDS011;28283;55.426;37.756;2024-01-11T09:25:00;1.07;;;0.70;;
42670;SDS011;28283;55.426;37.756;2024-01-11T09:30:00;0.73;;;0.40;;
42670;SDS011;28283;55.426;37.756;2024-01-11T09:35:02;1.98;;;0.88;;
42670;SDS011;28283;55.426;37.756;2024-01-11T09:40:05;1.52;;;0.70;;
42670;SDS011;28283;55.426;37.756;2024-01-11T09:45:14;0.40;;;0.10;;
42670;SDS011;28283;55.426;37.756;2024-01-11T09:50:19;0.10;;;0.10;;
42670;SDS011;28283;55.426;37.756;2024-01-11T09:55:21;0.40;;;0.40;;
42670;SDS011;28283;55.426;37.756;2024-01-11T10:00:22;1.42;;;0.40;;
42670;SDS011;28283;55.426;37.756;2024-01-11T10:05:24;0.95;;;0.40;;
42670;SDS011;28283;55.426;37.756;2024-01-11T10:10:25;0.90;;;0.60;;
42670;SDS011;28283;55.426;37.756;2024-01-11T10:15:27;1.25;;;1.02;;
42670;SDS011;28283;55.426;37.756;2024-01-11T10:20:28;0.85;;;0.75;;
42670;SDS011;28283;55.426;37.756;2024-01-11T10:25:30;1.08;;;0.95;;
42670;SDS011;28283;55.426;37.756;2024-01-11T10:30:31;1.20;;;1.10;;
42670;SDS011;28283;55.426;37.756;2024-01-11T10:35:34;0.70;;;0.70;;
42670;SDS011;28283;55.426;37.756;2024-01-11T10:40:35;1.90;;;1.10;;
42670;SDS011;28283;55.426;37.756;2024-01-11T10:50:41;1.30;;;1.20;;
42670;SDS011;28283;55.426;37.756;2024-01-11T10:55:45;1.30;;;1.02;;
42670;SDS011;28283;55.426;37.756;2024-01-11T11:00:47;1.13;;;0.40;;
42670;SDS011;28283;55.426;37.756;2024-01-11T11:05:54;1.27;;;1.17;;
42670;SDS011;28283;55.426;37.756;2024-01-11T11:10:58;0.65;;;0.65;;
42670;SDS011;28283;55.426;37.756;2024-01-11T11:15:59;0.63;;;0.50;;
42670;SDS011;28283;55.426;37.756;2024-01-11T11:21:06;2.50;;;0.50;;
42670;SDS011;28283;55.426;37.756;2024-01-11T11:26:14;1.20;;;0.70;;
42670;SDS011;28283;55.426;37.756;2024-01-11T11:31:34;0.40;;;0.40;;
42670;SDS011;28283;55.426;37.756;2024-01-11T11:36:36;1.98;;;0.93;;
42670;SDS011;28283;55.426;37.756;2024-01-11T11:46:39;1.73;;;0.70;;
42670;SDS011;28283;55.426;37.756;2024-01-11T11:56:41;1.10;;;0.90;;
42670;SDS011;28283;55.426;37.756;2024-01-11T12:01:42;0.68;;;0.52;;
42670;SDS011;28283;55.426;37.756;2024-01-11T12:06:44;0.40;;;0.40;;
42670;SDS011;28283;55.426;37.756;2024-01-11T12:11:45;1.00;;;0.80;;
42670;SDS011;28283;55.426;37.756;2024-01-11T12:16:55;0.70;;;0.70;;
42670;SDS011;28283;55.426;37.756;2024-01-11T12:21:56;0.60;;;0.60;;
42670;SDS011;28283;55.426;37.756;2024-01-11T12:26:57;1.55;;;0.50;;
42670;SDS011;28283;55.426;37.756;2024-01-11T12:31:58;1.05;;;0.80;;
42670;SDS011;28283;55.426;37.756;2024-01-11T12:36:59;0.73;;;0.73;;
42670;SDS011;28283;55.426;37.756;2024-01-11T12:42:02;0.95;;;0.65;;
42670;SDS011;28283;55.426;37.756;2024-01-11T12:47:03;2.05;;;0.90;;
42670;SDS011;28283;55.426;37.756;2024-01-11T12:52:05;1.75;;;1.13;;
42670;SDS011;28283;55.426;37.756;2024-01-11T12:57:06;2.63;;;1.67;;
42670;SDS011;28283;55.426;37.756;2024-01-11T13:02:07;3.75;;;0.93;;
42670;SDS011;28283;55.426;37.756;2024-01-11T13:07:08;1.42;;;1.02;;
42670;SDS011;28283;55.426;37.756;2024-01-11T13:12:09;2.30;;;1.55;;
42670;SDS011;28283;55.426;37.756;2024-01-11T13:17:10;1.50;;;0.95;;
42670;SDS011;28283;55.426;37.756;2024-01-11T13:22:10;4.20;;;1.42;;
42670;SDS011;28283;55.426;37.756;2024-01-11T13:27:11;1.60;;;1.00;;
42670;SDS011;28283;55.426;37.756;2024-01-11T13:32:12;1.55;;;1.00;;
42670;SDS011;28283;55.426;37.756;2024-01-11T13:37:13;1.75;;;1.05;;
42670;SDS011;28283;55.426;37.756;2024-01-11T13:42:13;1.55;;;1.17;;
42670;SDS011;28283;55.426;37.756;2024-01-11T13:47:14;2.10;;;1.42;;
42670;SDS011;28283;55.426;37.756;2024-01-11T13:52:15;1.88;;;1.70;;
42670;SDS011;28283;55.426;37.756;2024-01-11T13:57:15;2.08;;;1.05;;
42670;SDS011;28283;55.426;37.756;2024-01-11T14:02:17;3.13;;;0.93;;
42670;SDS011;28283;55.426;37.756;2024-01-11T14:07:17;1.05;;;0.93;;
42670;SDS011;28283;55.426;37.756;2024-01-11T14:12:18;3.15;;;1.77;;
42670;SDS011;28283;55.426;37.756;2024-01-11T14:17:19;1.58;;;1.48;;
42670;SDS011;28283;55.426;37.756;2024-01-11T14:22:19;2.22;;;1.23;;
42670;SDS011;28283;55.426;37.756;2024-01-11T14:27:20;1.60;;;0.85;;
42670;SDS011;28283;55.426;37.756;2024-01-11T14:32:21;0.88;;;0.77;;
42670;SDS011;28283;55.426;37.756;2024-01-11T14:37:22;2.08;;;1.33;;
42670;SDS011;28283;55.426;37.756;2024-01-11T14:42:22;1.65;;;1.55;;
42670;SDS011;28283;55.426;37.756;2024-01-11T14:47:23;3.58;;;1.40;;
42670;SDS011;28283;55.426;37.756;2024-01-11T14:52:25;3.70;;;1.50;;
42670;SDS011;28283;55.426;37.756;2024-01-11T14:57:26;1.83;;;1.17;;
42670;SDS011;28283;55.426;37.756;2024-01-11T15:02:27;2.60;;;0.88;;
42670;SDS011;28283;55.426;37.756;2024-01-11T15:07:27;1.05;;;0.60;;
42670;SDS011;28283;55.426;37.756;2024-01-11T15:12:28;1.30;;;1.05;;
42670;SDS011;28283;55.426;37.756;2024-01-11T15:17:29;1.00;;;0.95;;
42670;SDS011;28283;55.426;37.756;2024-01-11T15:22:30;1.70;;;0.80;;
42670;SDS011;28283;55.426;37.756;2024-01-11T15:27:32;1.20;;;1.08;;
42670;SDS011;28283;55.426;37.756;2024-01-11T15:32:32;1.95;;;1.20;;
42670;SDS011;28283;55.426;37.756;2024-01-11T15:37:33;0.65;;;0.65;;
42670;SDS011;28283;55.426;37.756;2024-01-11T15:42:34;0.85;;;0.85;;
42670;SDS011;28283;55.426;37.756;2024-01-11T15:47:35;2.42;;;1.40;;
42670;SDS011;28283;55.426;37.756;2024-01-11T15:52:36;4.20;;;0.95;;
42670;SDS011;28283;55.426;37.756;2024-01-11T15:57:38;1.52;;;1.23;;
42670;SDS011;28283;55.426;37.756;2024-01-11T16:02:39;1.58;;;0.82;;
42670;SDS011;28283;55.426;37.756;2024-01-11T16:07:41;1.88;;;1.17;;
42670;SDS011;28283;55.426;37.756;2024-01-11T16:12:42;1.58;;;1.20;;
42670;SDS011;28283;55.426;37.756;2024-01-11T16:17:43;2.05;;;1.10;;
42670;SDS011;28283;55.426;37.756;2024-01-11T16:22:43;1.17;;;0.90;;
42670;SDS011;28283;55.426;37.756;2024-01-11T16:27:44;0.80;;;0.68;;
42670;SDS011;28283;55.426;37.756;2024-01-11T16:32:45;2.92;;;1.08;;
42670;SDS011;28283;55.426;37.756;2024-01-11T16:37:45;1.05;;;0.70;;
42670;SDS011;28283;55.426;37.756;2024-01-11T16:42:46;1.00;;;0.93;;
42670;SDS011;28283;55.426;37.756;2024-01-11T16:47:47;2.10;;;1.10;;
42670;SDS011;28283;55.426;37.756;2024-01-11T16:52:50;3.20;;;0.70;;
42670;SDS011;28283;55.426;37.756;2024-01-11T16:57:50;1.65;;;1.20;;
42670;SDS011;28283;55.426;37.756;2024-01-11T17:02:51;1.55;;;1.10;;
42670;SDS011;28283;55.426;37.756;2024-01-11T17:07:52;2.95;;;1.38;;
42670;SDS011;28283;55.426;37.756;2024-01-11T17:12:52;1.00;;;1.00;;
42670;SDS011;28283;55.426;37.756;2024-01-11T17:17:53;1.73;;;1.08;;
42670;SDS011;28283;55.426;37.756;2024-01-11T17:22:54;2.60;;;1.75;;
42670;SDS011;28283;55.426;37.756;2024-01-11T17:27:55;2.30;;;1.33;;
42670;SDS011;28283;55.426;37.756;2024-01-11T17:32:55;2.67;;;0.70;;
42670;SDS011;28283;55.426;37.756;2024-01-11T17:37:56;1.77;;;0.98;;
42670;SDS011;28283;55.426;37.756;2024-01-11T17:42:56;1.80;;;1.00;;
42670;SDS011;28283;55.426;37.756;2024-01-11T17:47:58;1.48;;;0.60;;
42670;SDS011;28283;55.426;37.756;2024-01-11T17:52:59;1.50;;;0.65;;
42670;SDS011;28283;55.426;37.756;2024-01-11T17:58:00;2.17;;;0.75;;
42670;SDS011;28283;55.426;37.756;2024-01-11T18:03:01;1.23;;;0.80;;
42670;SDS011;28283;55.426;37.756;2024-01-11T18:08:02;1.77;;;0.70;;
42670;SDS011;28283;55.426;37.756;2024-01-11T18:13:03;2.83;;;0.90;;
42670;SDS011;28283;55.426;37.756;2024-01-11T18:18:04;1.15;;;1.05;;
42670;SDS011;28283;55.426;37.756;2024-01-11T18:23:05;2.13;;;1.17;;
42670;SDS011;28283;55.426;37.756;2024-01-11T18:28:06;1.45;;;0.90;;
42670;SDS011;28283;55.426;37.756;2024-01-11T18:33:07;3.15;;;1.02;;
42670;SDS011;28283;55.426;37.756;2024-01-11T18:38:08;1.55;;;1.15;;
42670;SDS011;28283;55.426;37.756;2024-01-11T18:43:08;1.98;;;0.88;;
42670;SDS011;28283;55.426;37.756;2024-01-11T18:48:09;2.70;;;0.85;;
42670;SDS011;28283;55.426;37.756;2024-01-11T18:53:12;2.45;;;1.60;;
42670;SDS011;28283;55.426;37.756;2024-01-11T18:58:13;1.38;;;1.27;;
42670;SDS011;28283;55.426;37.756;2024-01-11T19:03:14;0.80;;;0.80;;
42670;SDS011;28283;55.426;37.756;2024-01-11T19:08:15;1.65;;;0.70;;
42670;SDS011;28283;55.426;37.756;2024-01-11T19:13:16;1.20;;;1.05;;
42670;SDS011;28283;55.426;37.756;2024-01-11T19:18:17;2.08;;;0.75;;
42670;SDS011;28283;55.426;37.756;2024-01-11T19:23:18;0.93;;;0.80;;
42670;SDS011;28283;55.426;37.756;2024-01-11T19:28:20;1.17;;;0.75;;
42670;SDS011;28283;55.426;37.756;2024-01-11T19:33:20;1.90;;;0.90;;
42670;SDS011;28283;55.426;37.756;2024-01-11T19:38:21;4.65;;;1.00;;
42670;SDS011;28283;55.426;37.756;2024-01-11T19:43:22;1.92;;;0.88;;
42670;SDS011;28283;55.426;37.756;2024-01-11T19:48:23;1.08;;;0.88;;
42670;SDS011;28283;55.426;37.756;2024-01-11T19:53:23;2.53;;;1.67;;
42670;SDS011;28283;55.426;37.756;2024-01-11T19:58:24;1.85;;;1.42;;
42670;SDS011;28283;55.426;37.756;2024-01-11T20:03:25;1.23;;;1.13;;
42670;SDS011;28283;55.426;37.756;2024-01-11T20:08:25;4.55;;;1.38;;
42670;SDS011;28283;55.426;37.756;2024-01-11T20:13:26;2.65;;;0.95;;
42670;SDS011;28283;55.426;37.756;2024-01-11T20:18:27;2.22;;;0.88;;
42670;SDS011;28283;55.426;37.756;2024-01-11T20:23:29;2.92;;;0.98;;
42670;SDS011;28283;55.426;37.756;2024-01-11T20:28:29;1.27;;;1.10;;
42670;SDS011;28283;55.426;37.756;2024-01-11T20:33:30;0.70;;;0.70;;
42670;SDS011;28283;55.426;37.756;2024-01-11T20:38:31;1.55;;;1.10;;
42670;SDS011;28283;55.426;37.756;2024-01-11T20:43:32;2.65;;;0.70;;
42670;SDS011;28283;55.426;37.756;2024-01-11T20:48:32;1.30;;;1.00;;
42670;SDS011;28283;55.426;37.756;2024-01-11T20:53:33;1.05;;;0.85;;
42670;SDS011;28283;55.426;37.756;2024-01-11T20:58:34;2.47;;;0.80;;
42670;SDS011;28283;55.426;37.756;2024-01-11T21:03:34;1.80;;;0.90;;
42670;SDS011;28283;55.426;37.756;2024-01-11T21:08:35;1.20;;;0.90;;
42670;SDS011;28283;55.426;37.756;2024-01-11T21:13:35;1.73;;;0.90;;
42670;SDS011;28283;55.426;37.756;2024-01-11T21:18:36;0.52;;;0.52;;
42670;SDS011;28283;55.426;37.756;2024-01-11T21:23:36;2.30;;;0.60;;
42670;SDS011;28283;55.426;37.756;2024-01-11T21:28:37;1.77;;;0.63;;
42670;SDS011;28283;55.426;37.756;2024-01-11T21:33:41;2.80;;;0.52;;
42670;SDS011;28283;55.426;37.756;2024-01-11T21:38:42;1.27;;;1.00;;
42670;SDS011;28283;55.426;37.756;2024-01-11T21:43:43;2.80;;;0.70;;
42670;SDS011;28283;55.426;37.756;2024-01-11T21:48:44;1.55;;;0.60;;
42670;SDS011;28283;55.426;37.756;2024-01-11T21:53:45;1.48;;;0.80;;
42670;SDS011;28283;55.426;37.756;2024-01-11T21:58:45;0.40;;;0.40;;
42670;SDS011;28283;55.426;37.756;2024-01-11T22:03:46;2.30;;;0.60;;
42670;SDS011;28283;55.426;37.756;2024-01-11T22:08:47;0.50;;;0.50;;
42670;SDS011;28283;55.426;37.756;2024-01-11T22:13:47;0.77;;;0.60;;
42670;SDS011;28283;55.426;37.756;2024-01-11T22:18:48;2.13;;;0.80;;
42670;SDS011;28283;55.426;37.756;2024-01-11T22:23:49;1.08;;;0.50;;
42670;SDS011;28283;55.426;37.756;2024-01-11T22:28:50;0.85;;;0.70;;
42670;SDS011;28283;55.426;37.756;2024-01-11T22:33:51;3.80;;;1.15;;
42670;SDS011;28283;55.426;37.756;2024-01-11T22:38:52;0.63;;;0.63;;
42670;SDS011;28283;55.426;37.756;2024-01-11T22:43:53;0.85;;;0.82;;
42670;SDS011;28283;55.426;37.756;2024-01-11T22:48:53;1.30;;;0.60;;
42670;SDS011;28283;55.426;37.756;2024-01-11T22:53:54;4.50;;;0.95;;
42670;SDS011;28283;55.426;37.756;2024-01-11T22:58:55;1.40;;;0.82;;
42670;SDS011;28283;55.426;37.756;2024-01-11T23:03:55;1.85;;;0.75;;
42670;SDS011;28283;55.426;37.756;2024-01-11T23:08:56;5.25;;;1.00;;
42670;SDS011;28283;55.426;37.756;2024-01-11T23:13:57;0.88;;;0.68;;
42670;SDS011;28283;55.426;37.756;2024-01-11T23:18:58;2.38;;;1.05;;
42670;SDS011;28283;55.426;37.756;2024-01-11T23:23:59;0.77;;;0.77;;
42670;SDS011;28283;55.426;37.756;2024-01-11T23:28:59;1.60;;;0.90;;
42670;SDS011;28283;55.426;37.756;2024-01-11T23:34:00;0.95;;;0.73;;
42670;SDS011;28283;55.426;37.756;2024-01-11T23:39:00;1.05;;;1.05;;
42670;SDS011;28283;55.426;37.756;2024-01-11T23:44:01;1.92;;;1.02;;
42670;SDS011;28283;55.426;37.756;2024-01-11T23:49:02;1.75;;;1.10;;
42670;SDS011;28283;55.426;37.756;2024-01-11T23:54:03;1.05;;;1.00;;
42670;SDS011;28283;55.426;37.756;2024-01-11T23:59:04;0.95;;;0.90;;
